Clive, New Zealand
Current Conditions -  °F | °C
As of 3:00 PM on Friday 19 Dec 2014 (Local Time) from NZWN Reporting Station
Overcast Overcast  
Wind Chill: 64°   Ceiling: 700
Heat Index: 64°   Visibility: 6mi
Dew Point: 63°   Wind: 24mph
Humidity: 94%   Direction: 10°N
Pressure: 29.94"   Gusts: NA
Location:  39.58°S, 176.91°E
Report Text: NZWN 190300Z AUTO 01021KT 9999 OVC007/// 18/17 Q1014 NOSIG
Loading
Personal Weather Stations






























Interactive Weather Map New forecast layout! Learn more

10-Day Weather Forecast

Advertisements
Track Severe Weather on mobile